createdAt,value
2018-12-07T00:00:06.795Z,94.90
2018-12-07T00:02:34.830Z,94.90
2018-12-07T00:05:03.164Z,94.90
2018-12-07T00:07:31.204Z,94.90
2018-12-07T00:09:59.234Z,94.90
2018-12-07T00:12:27.517Z,94.90
2018-12-07T00:14:55.577Z,94.90
2018-12-07T00:17:23.633Z,94.90
2018-12-07T00:19:51.709Z,94.90
2018-12-07T00:22:19.752Z,94.90
2018-12-07T00:24:47.813Z,94.90
2018-12-07T00:27:15.985Z,94.90
2018-12-07T00:29:44.050Z,94.80
2018-12-07T00:32:12.119Z,94.80
2018-12-07T00:34:40.237Z,94.90
2018-12-07T00:37:08.825Z,94.90
2018-12-07T00:39:36.855Z,94.90
2018-12-07T00:42:05.017Z,94.80
2018-12-07T00:44:33.085Z,94.80
2018-12-07T00:47:01.154Z,94.80
2018-12-07T00:49:29.213Z,94.80
2018-12-07T00:51:57.249Z,94.70
2018-12-07T00:54:25.289Z,94.70
2018-12-07T00:56:53.350Z,94.70
2018-12-07T00:59:21.452Z,94.70
2018-12-07T01:01:49.502Z,94.70
2018-12-07T01:04:17.569Z,94.60
2018-12-07T01:06:45.697Z,94.60
2018-12-07T01:09:13.781Z,94.60
2018-12-07T01:11:41.846Z,94.50
2018-12-07T01:14:10.245Z,94.50
2018-12-07T01:16:38.282Z,94.50
2018-12-07T01:19:06.312Z,94.50
2018-12-07T01:21:34.381Z,94.50
2018-12-07T01:24:02.432Z,94.50
2018-12-07T01:26:30.456Z,94.50
2018-12-07T01:28:58.584Z,94.40
2018-12-07T01:31:30.354Z,94.40
2018-12-07T01:33:58.423Z,94.50
2018-12-07T01:36:26.487Z,94.50
2018-12-07T01:38:54.561Z,94.40
2018-12-07T01:41:23.638Z,94.40
2018-12-07T01:43:51.710Z,94.50
2018-12-07T01:46:23.209Z,94.40
2018-12-07T01:48:51.392Z,94.40
2018-12-07T01:51:19.445Z,94.40
2018-12-07T01:53:47.501Z,94.40
2018-12-07T01:56:15.576Z,94.50
2018-12-07T01:58:43.568Z,94.50
2018-12-07T02:01:15.049Z,94.40
2018-12-07T02:03:43.158Z,94.40
2018-12-07T02:06:11.194Z,94.40
2018-12-07T02:08:39.525Z,94.50
2018-12-07T02:11:07.565Z,94.50
2018-12-07T02:13:35.639Z,94.60
2018-12-07T02:16:03.813Z,94.70
2018-12-07T02:18:32.488Z,94.70
2018-12-07T02:21:00.538Z,94.60
2018-12-07T02:23:28.613Z,94.70
2018-12-07T02:25:56.661Z,94.60
2018-12-07T02:28:24.756Z,94.60
2018-12-07T02:30:52.789Z,94.60
2018-12-07T02:33:20.834Z,94.60
2018-12-07T02:35:48.862Z,94.70
2018-12-07T02:38:16.925Z,94.60
2018-12-07T02:40:44.972Z,94.70
2018-12-07T02:43:13.061Z,94.70
2018-12-07T02:45:41.122Z,94.70
2018-12-07T02:48:09.165Z,94.60
2018-12-07T02:50:37.394Z,94.70
2018-12-07T02:53:05.442Z,94.80
2018-12-07T02:55:33.469Z,94.80
2018-12-07T02:58:01.549Z,95.10
2018-12-07T03:00:30.522Z,95.10
2018-12-07T03:02:58.561Z,95.20
2018-12-07T03:05:26.654Z,95.20
2018-12-07T03:07:54.707Z,95.30
2018-12-07T03:10:22.737Z,95.30
2018-12-07T03:12:50.833Z,95.40
2018-12-07T03:15:18.914Z,95.40
2018-12-07T03:17:50.708Z,95.50
2018-12-07T03:20:18.774Z,95.30
2018-12-07T03:22:46.796Z,95.50
2018-12-07T03:25:14.834Z,95.40
2018-12-07T03:27:42.999Z,95.40
2018-12-07T03:30:11.158Z,95.50
2018-12-07T03:32:39.776Z,95.70
2018-12-07T03:35:08.035Z,95.60
2018-12-07T03:37:36.190Z,95.70
2018-12-07T03:40:05.284Z,95.70
2018-12-07T03:42:33.641Z,95.80
2018-12-07T03:45:01.749Z,95.70
2018-12-07T03:47:29.786Z,95.70
2018-12-07T03:49:57.898Z,95.80
2018-12-07T03:52:25.905Z,95.70
2018-12-07T03:54:53.941Z,95.90
2018-12-07T03:57:22.012Z,96.00
2018-12-07T03:59:50.052Z,96.10
2018-12-07T04:02:18.081Z,96.20
2018-12-07T04:04:46.138Z,96.20
2018-12-07T04:07:14.210Z,95.80
2018-12-07T04:09:42.278Z,96.10
2018-12-07T04:12:10.347Z,96.10
2018-12-07T04:14:38.411Z,96.20
2018-12-07T04:17:06.397Z,96.20
2018-12-07T04:19:34.438Z,96.20
2018-12-07T04:22:02.545Z,96.20
2018-12-07T04:24:30.582Z,96.20
2018-12-07T04:26:58.621Z,96.10
2018-12-07T04:29:26.730Z,96.20
2018-12-07T04:31:54.790Z,96.30
2018-12-07T04:34:22.861Z,96.20
2018-12-07T04:36:50.893Z,96.30
2018-12-07T04:39:18.950Z,96.30
2018-12-07T04:41:47.042Z,96.40
2018-12-07T04:44:15.089Z,96.70
2018-12-07T04:46:43.094Z,96.50
2018-12-07T04:49:14.950Z,96.50
2018-12-07T04:51:42.998Z,96.50
2018-12-07T04:54:11.105Z,96.40
2018-12-07T04:56:39.146Z,96.50
2018-12-07T04:59:07.222Z,96.90
2018-12-07T05:01:35.250Z,96.60
2018-12-07T05:04:03.288Z,96.60
2018-12-07T05:06:31.418Z,96.80
2018-12-07T05:08:59.472Z,97.00
2018-12-07T05:11:27.523Z,97.00
2018-12-07T05:13:55.671Z,97.00
2018-12-07T05:16:23.712Z,97.00
2018-12-07T05:18:51.741Z,97.00
2018-12-07T05:21:19.801Z,97.00
2018-12-07T05:23:47.901Z,97.00
2018-12-07T05:26:16.002Z,96.90
2018-12-07T05:28:44.045Z,97.10
2018-12-07T05:31:12.113Z,97.20
2018-12-07T05:33:40.171Z,97.30
2018-12-07T05:36:08.226Z,97.40
2018-12-07T05:38:36.297Z,97.40
2018-12-07T05:41:04.334Z,97.40
2018-12-07T05:43:32.390Z,97.30
2018-12-07T05:46:00.462Z,97.30
2018-12-07T05:48:28.509Z,97.30
2018-12-07T05:50:56.606Z,97.30
2018-12-07T05:53:24.935Z,97.30
2018-12-07T05:55:53.038Z,97.40
2018-12-07T05:58:21.119Z,97.20
2018-12-07T06:00:49.175Z,97.60
2018-12-07T06:03:17.234Z,97.60
2018-12-07T06:05:45.306Z,97.80
2018-12-07T06:08:13.433Z,97.80
2018-12-07T06:10:41.568Z,97.80
2018-12-07T06:13:09.694Z,97.80
2018-12-07T06:15:37.870Z,97.70
2018-12-07T06:18:05.927Z,97.70
2018-12-07T06:20:37.090Z,97.70
2018-12-07T06:23:05.172Z,97.70
2018-12-07T06:25:33.230Z,97.80
2018-12-07T06:28:01.316Z,97.90
2018-12-07T06:30:29.376Z,97.90
2018-12-07T06:32:57.423Z,97.90
2018-12-07T06:35:25.509Z,97.90
2018-12-07T06:37:53.562Z,97.90
2018-12-07T06:40:21.638Z,97.90
2018-12-07T06:42:49.686Z,98.00
2018-12-07T06:45:17.709Z,98.00
2018-12-07T06:47:45.885Z,98.10
2018-12-07T06:50:14.078Z,98.20
2018-12-07T06:52:42.136Z,98.20
2018-12-07T06:55:10.458Z,98.20
2018-12-07T06:57:38.473Z,98.20
2018-12-07T07:00:07.629Z,98.20
2018-12-07T07:02:35.738Z,98.20
2018-12-07T07:05:03.930Z,98.20
2018-12-07T07:07:31.985Z,98.10
2018-12-07T07:10:00.060Z,98.10
2018-12-07T07:12:29.369Z,98.10
2018-12-07T07:14:57.422Z,98.00
2018-12-07T07:17:25.494Z,98.00
2018-12-07T07:19:53.556Z,98.00
2018-12-07T07:22:21.781Z,98.00
2018-12-07T07:24:49.878Z,97.90
2018-12-07T07:27:17.921Z,98.00
2018-12-07T07:29:46.022Z,98.00
2018-12-07T07:32:14.172Z,98.00
2018-12-07T07:34:42.317Z,98.00
2018-12-07T07:37:10.373Z,98.00
2018-12-07T07:39:38.412Z,98.00
2018-12-07T07:42:06.538Z,98.00
2018-12-07T07:44:34.573Z,97.90
2018-12-07T07:47:02.648Z,97.90
2018-12-07T07:49:30.893Z,97.90
2018-12-07T07:51:58.950Z,97.80
2018-12-07T07:54:27.025Z,97.80
2018-12-07T07:56:55.116Z,97.80
2018-12-07T07:59:23.197Z,97.90
2018-12-07T08:01:51.221Z,98.00
2018-12-07T08:04:19.365Z,97.90
2018-12-07T08:06:47.413Z,97.90
2018-12-07T08:09:15.422Z,97.90
2018-12-07T08:11:43.526Z,97.90
2018-12-07T08:14:11.540Z,97.90
2018-12-07T08:16:39.590Z,97.90
2018-12-07T08:19:07.725Z,97.90
2018-12-07T08:21:35.745Z,98.20
2018-12-07T08:24:03.879Z,97.80
2018-12-07T08:26:31.961Z,97.80
2018-12-07T08:28:59.999Z,97.70
2018-12-07T08:31:28.091Z,97.60
2018-12-07T08:33:56.144Z,97.70
2018-12-07T08:36:24.165Z,97.40
2018-12-07T08:38:52.229Z,97.70
2018-12-07T08:41:20.256Z,97.70
2018-12-07T08:43:48.385Z,97.60
2018-12-07T08:46:16.417Z,97.60
2018-12-07T08:48:44.454Z,97.60
2018-12-07T08:51:12.529Z,97.50
2018-12-07T08:53:40.553Z,97.50
2018-12-07T08:56:08.595Z,97.50
2018-12-07T08:58:36.669Z,97.90
2018-12-07T09:01:04.707Z,97.50
2018-12-07T09:03:32.775Z,97.50
2018-12-07T09:06:00.957Z,97.50
2018-12-07T09:08:29.034Z,97.40
2018-12-07T09:10:57.110Z,97.40
2018-12-07T09:13:25.141Z,97.40
2018-12-07T09:15:53.182Z,97.40
2018-12-07T09:18:21.266Z,97.40
2018-12-07T09:20:53.914Z,97.40
2018-12-07T09:23:19.355Z,97.40
2018-12-07T09:25:47.489Z,97.40
2018-12-07T09:28:15.805Z,97.30
2018-12-07T09:30:43.867Z,97.30
2018-12-07T09:33:12.022Z,97.20
2018-12-07T09:35:40.084Z,97.30
2018-12-07T09:38:13.075Z,97.30
2018-12-07T09:40:38.201Z,97.30
2018-12-07T09:43:06.349Z,97.30
2018-12-07T09:45:34.668Z,97.20
2018-12-07T09:48:02.781Z,97.20
2018-12-07T09:50:30.826Z,97.20
2018-12-07T09:52:58.913Z,97.20
2018-12-07T09:55:26.985Z,97.30
2018-12-07T09:57:55.019Z,97.20
2018-12-07T10:00:23.185Z,97.20
2018-12-07T10:02:51.275Z,97.10
2018-12-07T10:05:19.305Z,97.10
2018-12-07T10:07:47.439Z,97.00
2018-12-07T10:10:15.511Z,96.90
2018-12-07T10:12:43.598Z,96.90
2018-12-07T10:15:11.761Z,96.90
2018-12-07T10:17:39.797Z,96.90
2018-12-07T10:20:08.009Z,96.90
2018-12-07T10:22:37.821Z,96.90
2018-12-07T10:25:06.189Z,97.00
2018-12-07T10:27:34.272Z,97.30
2018-12-07T10:30:02.336Z,96.90
2018-12-07T10:32:30.495Z,96.90
2018-12-07T10:34:58.580Z,96.90
2018-12-07T10:37:26.614Z,96.90
2018-12-07T10:39:54.701Z,96.90
2018-12-07T10:42:22.873Z,96.90
2018-12-07T10:44:50.947Z,96.80
2018-12-07T10:47:19.061Z,96.80
2018-12-07T10:49:47.233Z,96.70
2018-12-07T10:52:15.266Z,96.70
2018-12-07T10:54:46.811Z,96.70
2018-12-07T10:57:14.847Z,96.60
2018-12-07T10:59:42.877Z,96.60
2018-12-07T11:02:16.365Z,96.50
2018-12-07T11:04:49.949Z,96.50
2018-12-07T11:07:23.510Z,96.40
2018-12-07T11:09:56.959Z,96.40
2018-12-07T11:12:30.462Z,96.40
2018-12-07T11:15:03.916Z,96.30
2018-12-07T11:17:37.588Z,96.30
2018-12-07T11:20:11.135Z,96.20
2018-12-07T11:22:44.567Z,96.20
2018-12-07T11:25:18.128Z,96.20
2018-12-07T11:27:51.562Z,96.10
2018-12-07T11:30:24.970Z,96.10
2018-12-07T11:32:58.358Z,96.10
2018-12-07T11:35:30.476Z,96.00
2018-12-07T11:37:58.587Z,96.00
2018-12-07T11:40:30.379Z,96.00
2018-12-07T11:42:58.522Z,95.70
2018-12-07T11:45:26.557Z,95.60
2018-12-07T11:47:54.627Z,95.60
2018-12-07T11:50:22.746Z,95.50
2018-12-07T11:52:50.801Z,95.60
2018-12-07T11:55:18.820Z,95.60
2018-12-07T11:57:46.890Z,95.50
2018-12-07T12:00:15.049Z,95.40
2018-12-07T12:02:43.137Z,95.50
2018-12-07T12:05:11.175Z,95.50
2018-12-07T12:07:39.219Z,95.60
2018-12-07T12:10:07.284Z,95.60
2018-12-07T12:12:35.314Z,95.60
2018-12-07T12:15:03.845Z,95.50
2018-12-07T12:17:31.905Z,95.60
2018-12-07T12:19:59.938Z,95.60
2018-12-07T12:22:27.970Z,95.60
2018-12-07T12:24:56.023Z,95.60
2018-12-07T12:27:24.061Z,95.70
2018-12-07T12:29:52.279Z,95.70
2018-12-07T12:32:20.315Z,95.80
2018-12-07T12:34:48.364Z,95.80
2018-12-07T12:37:16.397Z,95.90
2018-12-07T12:39:44.464Z,95.90
2018-12-07T12:42:12.481Z,96.00
2018-12-07T12:44:40.556Z,96.10
2018-12-07T12:47:08.681Z,96.10
2018-12-07T12:49:36.737Z,96.20
2018-12-07T12:52:04.805Z,96.10
2018-12-07T12:54:32.833Z,96.20
2018-12-07T12:57:00.850Z,96.20
2018-12-07T12:59:29.034Z,96.20
2018-12-07T13:01:57.067Z,96.30
2018-12-07T13:04:25.046Z,96.40
2018-12-07T13:06:53.207Z,96.40
2018-12-07T13:09:21.225Z,96.50
2018-12-07T13:11:49.250Z,96.50
2018-12-07T13:14:17.318Z,96.50
2018-12-07T13:16:45.388Z,96.60
2018-12-07T13:19:13.405Z,96.60
2018-12-07T13:21:41.393Z,96.60
2018-12-07T13:24:09.426Z,96.70
2018-12-07T13:26:37.462Z,96.70
2018-12-07T13:29:05.473Z,96.80
2018-12-07T13:31:33.541Z,96.80
2018-12-07T13:34:01.567Z,96.80
2018-12-07T13:36:29.586Z,96.80
2018-12-07T13:38:57.647Z,96.80
2018-12-07T13:41:25.745Z,96.50
2018-12-07T13:43:54.825Z,96.90
2018-12-07T13:46:23.327Z,96.80
2018-12-07T13:48:51.755Z,96.90
2018-12-07T13:51:20.047Z,96.90
2018-12-07T13:53:48.180Z,96.90
2018-12-07T13:56:16.585Z,96.90
2018-12-07T13:58:44.950Z,97.00
2018-12-07T14:01:13.205Z,97.00
2018-12-07T14:03:41.395Z,96.90
2018-12-07T14:06:09.819Z,97.00
2018-12-07T14:08:37.837Z,97.00
2018-12-07T14:11:05.966Z,96.90
2018-12-07T14:13:34.157Z,97.00
2018-12-07T14:16:02.322Z,97.10
2018-12-07T14:18:31.409Z,97.10
2018-12-07T14:20:59.700Z,97.00
2018-12-07T14:23:27.697Z,97.00
2018-12-07T14:25:56.055Z,97.00
2018-12-07T14:28:28.271Z,96.90
2018-12-07T14:30:56.451Z,96.90
2018-12-07T14:33:24.901Z,96.90
2018-12-07T14:35:53.092Z,96.90
2018-12-07T14:38:21.257Z,96.90
2018-12-07T14:40:49.350Z,96.80
2018-12-07T14:43:17.422Z,96.80
2018-12-07T14:45:45.591Z,96.80
2018-12-07T14:48:13.756Z,96.80
2018-12-07T14:50:41.884Z,96.90
2018-12-07T14:53:10.065Z,96.90
2018-12-07T14:55:38.504Z,96.90
2018-12-07T14:58:06.718Z,96.90
2018-12-07T15:00:34.921Z,97.00
2018-12-07T15:03:03.093Z,96.90
2018-12-07T15:05:31.176Z,96.90
2018-12-07T15:07:59.288Z,96.80
2018-12-07T15:10:27.619Z,96.80
2018-12-07T15:12:55.963Z,96.70
2018-12-07T15:15:24.330Z,96.70
2018-12-07T15:17:52.559Z,96.60
2018-12-07T15:20:20.920Z,96.60
2018-12-07T15:22:49.205Z,96.50
2018-12-07T15:25:17.546Z,96.50
2018-12-07T15:27:45.922Z,96.50
2018-12-07T15:30:14.012Z,96.50
2018-12-07T15:32:42.085Z,96.50
2018-12-07T15:35:10.409Z,96.60
2018-12-07T15:37:38.547Z,96.50
2018-12-07T15:40:08.932Z,96.40
2018-12-07T15:42:37.218Z,96.30
2018-12-07T15:45:06.968Z,96.20
2018-12-07T15:47:34.984Z,96.20
2018-12-07T15:50:03.236Z,96.30
2018-12-07T15:52:31.439Z,96.20
2018-12-07T15:54:59.986Z,96.20
2018-12-07T15:57:28.228Z,96.10
2018-12-07T15:59:56.616Z,96.10
2018-12-07T16:02:25.235Z,96.10
2018-12-07T16:04:53.438Z,96.10
2018-12-07T16:07:21.580Z,96.00
2018-12-07T16:09:49.807Z,96.00
2018-12-07T16:12:17.831Z,95.90
2018-12-07T16:14:46.148Z,95.90
2018-12-07T16:17:14.658Z,95.90
2018-12-07T16:19:42.909Z,95.80
2018-12-07T16:22:11.101Z,95.80
2018-12-07T16:27:20.628Z,95.60
2018-12-07T16:29:48.871Z,95.60
2018-12-07T16:32:17.801Z,95.70
2018-12-07T16:34:46.563Z,95.60
2018-12-07T16:37:14.931Z,95.60
2018-12-07T16:39:43.379Z,95.50
2018-12-07T16:42:11.563Z,95.50
2018-12-07T16:44:39.690Z,95.50
2018-12-07T16:47:07.873Z,95.50
2018-12-07T16:49:36.035Z,95.50
2018-12-07T16:52:04.354Z,95.50
2018-12-07T16:54:32.578Z,95.50
2018-12-07T16:57:01.033Z,95.50
2018-12-07T16:59:29.159Z,95.50
2018-12-07T17:01:57.429Z,95.60
2018-12-07T17:04:25.591Z,95.60
2018-12-07T17:06:53.701Z,95.70
2018-12-07T17:09:21.770Z,95.60
2018-12-07T17:11:50.254Z,95.60
2018-12-07T17:14:18.551Z,95.50
2018-12-07T17:16:46.824Z,95.50
2018-12-07T17:19:15.084Z,95.50
2018-12-07T17:21:43.462Z,95.50
2018-12-07T17:24:11.641Z,95.40
2018-12-07T17:26:39.966Z,95.40
2018-12-07T17:29:08.233Z,95.70
2018-12-07T17:31:36.464Z,95.40
2018-12-07T17:34:04.825Z,95.40
2018-12-07T17:36:33.283Z,95.40
2018-12-07T17:39:01.463Z,95.40
2018-12-07T17:41:29.806Z,95.40
2018-12-07T17:43:58.009Z,95.40
2018-12-07T17:46:26.109Z,95.50
2018-12-07T17:48:54.461Z,95.50
2018-12-07T17:51:22.857Z,95.50
2018-12-07T17:53:51.066Z,95.60
2018-12-07T17:56:19.238Z,95.60
2018-12-07T17:58:50.173Z,95.70
2018-12-07T18:01:18.227Z,95.60
2018-12-07T18:03:46.293Z,95.70
2018-12-07T18:06:14.474Z,95.70
2018-12-07T18:08:42.989Z,95.70
2018-12-07T18:11:11.089Z,95.70
2018-12-07T18:13:39.239Z,95.70
2018-12-07T18:16:09.442Z,95.80
2018-12-07T18:18:37.801Z,95.80
2018-12-07T18:21:05.876Z,95.90
2018-12-07T18:23:34.214Z,96.00
2018-12-07T18:26:02.823Z,96.00
2018-12-07T18:28:31.116Z,95.90
2018-12-07T18:30:59.574Z,95.90
2018-12-07T18:33:27.772Z,95.70
2018-12-07T18:35:55.867Z,95.60
2018-12-07T18:38:24.257Z,95.70
2018-12-07T18:40:52.425Z,95.70
2018-12-07T18:43:20.601Z,95.70
2018-12-07T18:45:49.073Z,95.70
2018-12-07T18:48:17.188Z,95.70
2018-12-07T18:50:45.531Z,95.70
2018-12-07T18:53:13.937Z,95.70
2018-12-07T18:55:42.198Z,95.70
2018-12-07T18:58:10.543Z,95.70
2018-12-07T19:00:38.988Z,95.70
2018-12-07T19:03:07.212Z,95.70
2018-12-07T19:05:35.597Z,95.40
2018-12-07T19:08:04.191Z,95.80
2018-12-07T19:10:32.504Z,95.60
2018-12-07T19:13:00.689Z,95.60
2018-12-07T19:15:29.091Z,95.60
2018-12-07T19:17:57.380Z,95.60
2018-12-07T19:20:25.601Z,95.70
2018-12-07T19:22:54.198Z,95.60
2018-12-07T19:25:22.302Z,95.60
2018-12-07T19:27:50.726Z,95.60
2018-12-07T19:30:19.180Z,95.60
2018-12-07T19:32:57.517Z,95.60
2018-12-07T19:35:32.820Z,95.80
2018-12-07T19:38:03.086Z,95.50
2018-12-07T19:40:31.398Z,95.60
2018-12-07T19:43:02.616Z,95.60
2018-12-07T19:45:30.724Z,95.60
2018-12-07T19:47:58.803Z,95.60
2018-12-07T19:50:27.032Z,95.70
2018-12-07T19:55:37.815Z,95.60
2018-12-07T19:58:12.404Z,95.60
2018-12-07T20:00:40.763Z,95.60
2018-12-07T20:03:09.981Z,95.40
2018-12-07T20:05:38.502Z,95.40
2018-12-07T20:08:07.677Z,95.50
2018-12-07T20:10:35.803Z,95.60
2018-12-07T20:15:50.138Z,95.50
2018-12-07T20:18:18.424Z,95.40
2018-12-07T20:20:47.169Z,95.50
2018-12-07T20:23:16.036Z,95.50
2018-12-07T20:25:50.626Z,95.40
2018-12-07T20:28:19.659Z,95.40
2018-12-07T20:30:47.753Z,95.40
2018-12-07T20:33:16.597Z,95.30
2018-12-07T20:35:45.000Z,95.40
2018-12-07T20:38:13.259Z,95.40
2018-12-07T20:40:41.409Z,95.30
2018-12-07T20:43:10.750Z,95.30
2018-12-07T20:45:40.550Z,95.40
2018-12-07T20:48:10.396Z,95.30
2018-12-07T20:50:38.703Z,95.30
2018-12-07T20:53:06.797Z,95.20
2018-12-07T20:55:36.135Z,95.20
2018-12-07T20:58:04.361Z,95.20
2018-12-07T21:00:32.480Z,95.10
2018-12-07T21:03:00.555Z,95.10
2018-12-07T21:08:03.055Z,95.10
2018-12-07T21:11:14.763Z,95.10
2018-12-07T21:13:56.976Z,95.00
2018-12-07T21:17:36.347Z,95.10
2018-12-07T21:20:14.507Z,95.10
2018-12-07T21:22:42.968Z,95.00
2018-12-07T21:25:11.125Z,94.90
2018-12-07T21:27:39.292Z,94.80
2018-12-07T21:30:52.081Z,94.80
2018-12-07T21:33:24.422Z,94.80
2018-12-07T21:36:19.086Z,94.40
2018-12-07T21:38:47.341Z,94.40
2018-12-07T21:41:15.382Z,94.30
2018-12-07T21:43:43.712Z,94.10
2018-12-07T21:46:12.741Z,94.10
2018-12-07T21:48:41.155Z,94.00
2018-12-07T21:51:18.819Z,93.90
2018-12-07T21:53:47.185Z,93.70
2018-12-07T21:56:15.510Z,93.90
2018-12-07T21:58:43.665Z,93.80
2018-12-07T22:01:11.912Z,93.80
2018-12-07T22:03:40.311Z,93.80
2018-12-07T22:06:08.621Z,93.60
2018-12-07T22:08:36.708Z,93.40
2018-12-07T22:11:05.412Z,93.30
2018-12-07T22:13:34.735Z,93.30
2018-12-07T22:16:02.782Z,93.30
2018-12-07T22:18:31.175Z,93.40
2018-12-07T22:21:02.599Z,93.30
2018-12-07T22:23:30.971Z,93.30
2018-12-07T22:25:59.150Z,93.20
2018-12-07T22:28:27.178Z,93.00
2018-12-07T22:30:55.449Z,93.10
2018-12-07T22:33:23.693Z,92.90
2018-12-07T22:35:52.454Z,93.00
2018-12-07T22:38:21.021Z,92.90
2018-12-07T22:40:49.787Z,93.00
2018-12-07T22:43:17.978Z,93.00
2018-12-07T22:45:46.418Z,93.00
2018-12-07T22:48:14.741Z,92.80
2018-12-07T22:50:42.954Z,92.90
2018-12-07T22:53:11.037Z,92.80
2018-12-07T22:55:39.102Z,92.90
2018-12-07T22:58:07.136Z,93.00
2018-12-07T23:00:35.414Z,92.90
2018-12-07T23:03:03.544Z,92.90
2018-12-07T23:05:31.581Z,92.80
2018-12-07T23:07:59.650Z,92.80
2018-12-07T23:10:27.700Z,92.70
2018-12-07T23:12:55.741Z,92.70
2018-12-07T23:15:23.844Z,92.50
2018-12-07T23:17:51.890Z,92.50
2018-12-07T23:20:19.949Z,92.50
2018-12-07T23:22:49.043Z,92.60
2018-12-07T23:25:17.412Z,92.40
2018-12-07T23:30:47.978Z,92.50
2018-12-07T23:33:16.066Z,92.60
2018-12-07T23:35:44.139Z,92.50
2018-12-07T23:38:12.216Z,92.50
2018-12-07T23:40:40.266Z,92.50
2018-12-07T23:43:09.836Z,92.50
2018-12-07T23:45:38.637Z,92.50
2018-12-07T23:48:06.701Z,92.50
2018-12-07T23:50:34.871Z,92.60
2018-12-07T23:53:02.919Z,92.50
2018-12-07T23:55:30.998Z,92.50
2018-12-07T23:57:59.129Z,92.50
